Time;durP1;ratioP1;P1;durP2;ratioP2;P2;SDS_P1;SDS_P2;PMS_P1;PMS_P2;Temp;Humidity;BMP_temperature;BMP_pressure;BME280_temperature;BME280_humidity;BME280_pressure;Samples;Min_cycle;Max_cycle;Signal;HPM_P1;HPM_P2
2024/03/27 00:01:20;;;;;;;4.25;3.30;;;;;;;;;;5053259;28;20083;-58
2024/03/27 00:03:46;;;;;;;9.60;4.00;;;;;;;;;;5053405;28;20083;-57
2024/03/27 00:06:13;;;;;;;4.32;3.25;;;;;;;;;;5052793;28;20017;-55
2024/03/27 00:08:38;;;;;;;4.53;3.50;;;;;;;;;;5053849;28;20025;-53
2024/03/27 00:11:04;;;;;;;6.00;4.45;;;;;;;;;;5053102;28;20039;-56
2024/03/27 00:13:30;;;;;;;5.93;4.22;;;;;;;;;;5052833;28;20360;-56
2024/03/27 00:15:56;;;;;;;5.00;3.15;;;;;;;;;;5053268;28;20029;-56
2024/03/27 00:18:22;;;;;;;5.32;3.60;;;;;;;;;;5053008;28;20021;-56
2024/03/27 00:20:48;;;;;;;5.70;3.40;;;;;;;;;;5053048;28;20025;-57
2024/03/27 00:23:14;;;;;;;4.55;3.28;;;;;;;;;;5053017;28;20033;-56
2024/03/27 00:25:41;;;;;;;4.30;3.03;;;;;;;;;;5053015;28;20035;-56
2024/03/27 00:28:07;;;;;;;6.20;3.53;;;;;;;;;;5053036;28;20033;-55
2024/03/27 00:30:34;;;;;;;4.15;3.00;;;;;;;;;;5052565;28;20159;-53
2024/03/27 00:33:01;;;;;;;3.95;3.00;;;;;;;;;;5052953;28;20032;-54
2024/03/27 00:35:27;;;;;;;4.30;3.08;;;;;;;;;;5055418;28;20025;-54
2024/03/27 00:37:53;;;;;;;5.68;3.38;;;;;;;;;;5056384;28;20025;-54
2024/03/27 00:40:22;;;;;;;3.58;2.67;;;;;;;;;;5056713;28;20379;-57
2024/03/27 00:42:48;;;;;;;4.25;2.80;;;;;;;;;;5056348;28;20025;-54
2024/03/27 00:45:14;;;;;;;4.88;3.08;;;;;;;;;;5056655;28;20025;-56
2024/03/27 00:47:40;;;;;;;3.65;2.60;;;;;;;;;;5056628;28;20033;-53
2024/03/27 00:50:06;;;;;;;4.55;3.35;;;;;;;;;;5056752;28;20025;-57
2024/03/27 00:52:32;;;;;;;6.32;3.40;;;;;;;;;;5055911;28;20029;-56
2024/03/27 00:54:58;;;;;;;3.60;2.83;;;;;;;;;;5055873;28;20430;-55
2024/03/27 00:57:24;;;;;;;5.03;3.17;;;;;;;;;;5056349;28;20485;-52
2024/03/27 00:59:50;;;;;;;3.90;3.28;;;;;;;;;;5056003;28;20037;-56
2024/03/27 01:02:16;;;;;;;3.55;3.15;;;;;;;;;;5056516;28;20462;-55
2024/03/27 01:04:42;;;;;;;4.38;3.13;;;;;;;;;;5055736;28;20386;-56
2024/03/27 01:07:08;;;;;;;5.43;3.38;;;;;;;;;;5056198;28;20525;-55
2024/03/27 01:09:34;;;;;;;4.63;3.05;;;;;;;;;;5056624;28;20039;-53
2024/03/27 01:12:00;;;;;;;4.18;3.35;;;;;;;;;;5055864;28;20079;-55
2024/03/27 01:14:26;;;;;;;6.65;3.65;;;;;;;;;;5055530;28;20467;-55
2024/03/27 01:16:52;;;;;;;3.70;3.08;;;;;;;;;;5055729;28;20105;-55
2024/03/27 01:19:19;;;;;;;4.20;3.30;;;;;;;;;;5056299;28;20430;-54
2024/03/27 01:21:44;;;;;;;6.32;3.33;;;;;;;;;;5055587;28;20069;-53
2024/03/27 01:24:10;;;;;;;5.32;3.35;;;;;;;;;;5054075;28;20025;-53
2024/03/27 01:26:37;;;;;;;3.65;3.00;;;;;;;;;;5055990;28;20033;-54
2024/03/27 01:29:03;;;;;;;3.60;2.67;;;;;;;;;;5055981;28;20059;-55
2024/03/27 01:31:29;;;;;;;4.07;2.88;;;;;;;;;;5055453;28;20451;-54
2024/03/27 01:33:55;;;;;;;4.95;3.05;;;;;;;;;;5055107;28;20028;-55
2024/03/27 01:36:20;;;;;;;5.47;3.08;;;;;;;;;;5055431;28;20059;-56
2024/03/27 01:38:46;;;;;;;4.85;3.20;;;;;;;;;;5055608;28;20029;-55
2024/03/27 01:41:13;;;;;;;3.92;3.15;;;;;;;;;;5055231;28;20017;-54
2024/03/27 01:43:38;;;;;;;3.88;2.95;;;;;;;;;;5055541;28;20060;-55
2024/03/27 01:46:08;;;;;;;4.72;3.13;;;;;;;;;;5054840;28;20083;-55
2024/03/27 01:48:35;;;;;;;5.18;3.00;;;;;;;;;;5055715;28;20025;-54
2024/03/27 01:51:01;;;;;;;5.22;3.33;;;;;;;;;;5054950;28;20033;-57
2024/03/27 01:53:27;;;;;;;4.00;3.17;;;;;;;;;;5055608;28;20025;-57
2024/03/27 01:55:53;;;;;;;4.78;2.97;;;;;;;;;;5055200;28;20029;-55
2024/03/27 01:58:19;;;;;;;4.72;3.30;;;;;;;;;;5056196;28;20469;-55
2024/03/27 02:00:45;;;;;;;5.85;3.50;;;;;;;;;;5054884;28;20492;-54
2024/03/27 02:03:11;;;;;;;4.55;2.95;;;;;;;;;;5055052;28;20475;-55
2024/03/27 02:05:37;;;;;;;5.00;3.50;;;;;;;;;;5054778;28;20025;-55
2024/03/27 02:08:03;;;;;;;3.67;3.15;;;;;;;;;;5055496;28;20025;-52
2024/03/27 02:10:30;;;;;;;4.20;3.00;;;;;;;;;;5054899;28;20025;-52
2024/03/27 02:12:56;;;;;;;3.15;2.50;;;;;;;;;;5054747;28;20035;-51
2024/03/27 02:15:22;;;;;;;3.83;2.72;;;;;;;;;;5054648;28;20029;-56
2024/03/27 02:17:48;;;;;;;4.70;3.20;;;;;;;;;;5054549;28;20036;-51
2024/03/27 02:20:13;;;;;;;4.40;3.40;;;;;;;;;;5054816;28;20021;-52
2024/03/27 02:22:39;;;;;;;4.85;3.60;;;;;;;;;;5054607;28;20028;-52
2024/03/27 02:25:26;;;;;;;4.28;2.97;;;;;;;;;;5054192;28;20021;-53
2024/03/27 02:27:52;;;;;;;4.45;3.13;;;;;;;;;;5054720;28;20414;-49
2024/03/27 02:30:18;;;;;;;4.13;2.95;;;;;;;;;;5054021;28;20032;-55
2024/03/27 02:32:44;;;;;;;4.07;3.17;;;;;;;;;;5054038;28;20029;-53
2024/03/27 02:35:12;;;;;;;3.95;2.60;;;;;;;;;;5054220;28;20124;-57
2024/03/27 02:37:38;;;;;;;3.83;2.80;;;;;;;;;;5054557;28;20029;-56
2024/03/27 02:40:05;;;;;;;3.92;2.72;;;;;;;;;;5054677;28;20123;-57
2024/03/27 02:42:31;;;;;;;3.58;2.70;;;;;;;;;;5054376;28;20033;-56
2024/03/27 02:44:57;;;;;;;5.25;3.20;;;;;;;;;;5054605;28;20025;-57
2024/03/27 02:47:23;;;;;;;4.60;3.10;;;;;;;;;;5054315;28;20417;-56
2024/03/27 02:49:49;;;;;;;6.07;2.88;;;;;;;;;;5054615;28;20120;-56
2024/03/27 02:52:15;;;;;;;3.75;2.75;;;;;;;;;;5054062;28;20374;-56
2024/03/27 02:54:41;;;;;;;4.18;2.90;;;;;;;;;;5054500;28;20081;-56
2024/03/27 02:57:07;;;;;;;4.47;3.20;;;;;;;;;;5053806;28;20041;-56
2024/03/27 02:59:33;;;;;;;4.40;3.38;;;;;;;;;;5053866;28;20024;-55
2024/03/27 03:01:59;;;;;;;4.18;3.20;;;;;;;;;;5053900;28;20462;-55
2024/03/27 03:04:25;;;;;;;5.18;3.95;;;;;;;;;;5053542;28;20035;-53
2024/03/27 03:06:51;;;;;;;4.35;3.10;;;;;;;;;;5054325;28;20021;-56
2024/03/27 03:09:18;;;;;;;5.38;3.33;;;;;;;;;;5054211;28;20367;-55
2024/03/27 03:11:44;;;;;;;5.13;2.72;;;;;;;;;;5054016;28;20059;-56
2024/03/27 03:14:10;;;;;;;4.35;2.90;;;;;;;;;;5054000;28;20033;-56
2024/03/27 03:16:36;;;;;;;3.90;2.72;;;;;;;;;;5054445;28;20029;-53
2024/03/27 03:19:02;;;;;;;5.55;3.38;;;;;;;;;;5053970;28;20033;-55
2024/03/27 03:21:28;;;;;;;5.40;3.10;;;;;;;;;;5054083;28;20029;-55
2024/03/27 03:23:54;;;;;;;6.07;3.38;;;;;;;;;;5053198;28;20127;-56
2024/03/27 03:26:20;;;;;;;4.32;3.13;;;;;;;;;;5053242;28;20024;-57
2024/03/27 03:28:46;;;;;;;4.43;2.75;;;;;;;;;;5054004;28;20040;-56
2024/03/27 03:31:17;;;;;;;5.25;2.97;;;;;;;;;;5053412;28;20029;-55
2024/03/27 03:33:42;;;;;;;;;;;;;;;;;;5054515;28;20112;-55
2024/03/27 03:36:08;;;;;;;4.28;2.47;;;;;;;;;;5053525;28;20347;-53
2024/03/27 03:38:34;;;;;;;3.97;2.90;;;;;;;;;;5053924;28;20036;-55
2024/03/27 03:41:01;;;;;;;3.42;2.60;;;;;;;;;;5054143;28;20047;-56
2024/03/27 03:43:28;;;;;;;3.75;2.60;;;;;;;;;;5053408;28;20024;-56
2024/03/27 03:45:54;;;;;;;4.18;2.70;;;;;;;;;;5053375;28;20104;-55
2024/03/27 03:48:21;;;;;;;3.72;2.90;;;;;;;;;;5053923;28;20430;-55
2024/03/27 03:50:47;;;;;;;4.05;2.50;;;;;;;;;;5053677;28;20360;-56
2024/03/27 03:53:13;;;;;;;3.20;2.55;;;;;;;;;;5053337;28;20032;-54
2024/03/27 03:55:42;;;;;;;3.53;2.67;;;;;;;;;;5053799;28;20142;-55
2024/03/27 03:58:09;;;;;;;5.28;3.20;;;;;;;;;;5053800;28;20124;-56
2024/03/27 04:00:35;;;;;;;4.43;2.92;;;;;;;;;;5053468;28;20493;-56
2024/03/27 04:03:01;;;;;;;4.97;3.00;;;;;;;;;;5053178;28;20115;-55
2024/03/27 04:05:27;;;;;;;3.30;2.65;;;;;;;;;;5053539;28;20068;-55
2024/03/27 04:07:53;;;;;;;5.80;2.85;;;;;;;;;;5053347;28;20021;-55
2024/03/27 04:10:19;;;;;;;4.45;2.97;;;;;;;;;;5057827;28;20033;-54
2024/03/27 04:12:45;;;;;;;4.40;2.78;;;;;;;;;;5056917;28;20025;-53
2024/03/27 04:15:11;;;;;;;4.88;3.10;;;;;;;;;;5057648;28;20029;-53
2024/03/27 04:17:37;;;;;;;4.43;2.60;;;;;;;;;;5057684;28;20533;-51
2024/03/27 04:20:10;;;;;;;8.20;3.45;;;;;;;;;;5056883;28;20032;-53
2024/03/27 04:22:36;;;;;;;6.45;3.22;;;;;;;;;;5057608;28;20079;-55
2024/03/27 04:25:03;;;;;;;4.82;3.25;;;;;;;;;;5056734;28;20025;-56
2024/03/27 04:27:29;;;;;;;4.07;2.67;;;;;;;;;;5056612;28;20029;-56
2024/03/27 04:29:56;;;;;;;4.68;3.17;;;;;;;;;;5057087;28;20025;-55
2024/03/27 04:32:22;;;;;;;4.88;3.00;;;;;;;;;;5056570;28;20391;-56
2024/03/27 04:34:48;;;;;;;5.32;4.03;;;;;;;;;;5056318;28;20071;-56
2024/03/27 04:37:14;;;;;;;4.82;4.32;;;;;;;;;;5056361;28;20029;-56
2024/03/27 04:39:40;;;;;;;7.75;4.57;;;;;;;;;;5057032;28;20033;-56
2024/03/27 04:42:08;;;;;;;7.15;3.63;;;;;;;;;;5056153;28;20459;-53
2024/03/27 04:44:34;;;;;;;4.68;3.45;;;;;;;;;;5056923;28;20029;-54
2024/03/27 04:47:00;;;;;;;11.68;4.15;;;;;;;;;;5056852;28;20399;-54
2024/03/27 04:49:26;;;;;;;4.38;3.85;;;;;;;;;;5056843;28;20064;-54
2024/03/27 04:51:52;;;;;;;4.63;3.83;;;;;;;;;;5056536;28;20355;-54
2024/03/27 04:54:18;;;;;;;4.97;4.18;;;;;;;;;;5056212;28;20032;-54
2024/03/27 04:56:44;;;;;;;7.90;4.75;;;;;;;;;;5056321;28;20159;-56
2024/03/27 04:59:10;;;;;;;5.18;3.88;;;;;;;;;;5056178;28;20094;-56
2024/03/27 05:01:36;;;;;;;5.00;3.80;;;;;;;;;;5056571;28;20021;-53
2024/03/27 05:04:02;;;;;;;5.88;4.35;;;;;;;;;;5056048;28;20036;-55
2024/03/27 05:06:28;;;;;;;7.53;4.68;;;;;;;;;;5055736;28;20104;-56
2024/03/27 05:08:54;;;;;;;5.03;4.05;;;;;;;;;;5056249;28;20024;-54
2024/03/27 05:11:20;;;;;;;5.68;4.20;;;;;;;;;;5056793;28;20114;-53
2024/03/27 05:13:46;;;;;;;5.35;3.97;;;;;;;;;;5055618;28;20028;-54
2024/03/27 05:16:16;;;;;;;8.60;4.22;;;;;;;;;;5056077;28;20029;-54
2024/03/27 05:18:42;;;;;;;5.15;4.60;;;;;;;;;;5055790;28;20085;-54
2024/03/27 05:21:08;;;;;;;6.93;5.35;;;;;;;;;;5055461;28;20059;-55
2024/03/27 05:23:35;;;;;;;8.23;5.35;;;;;;;;;;5056224;28;20065;-53
2024/03/27 05:26:03;;;;;;;6.55;4.38;;;;;;;;;;5056175;28;20332;-56
2024/03/27 05:28:29;;;;;;;7.00;4.75;;;;;;;;;;5055589;28;20068;-56
2024/03/27 05:30:55;;;;;;;7.82;5.20;;;;;;;;;;5055601;28;20057;-56
2024/03/27 05:33:21;;;;;;;6.03;4.43;;;;;;;;;;5055581;28;20127;-54
2024/03/27 05:35:47;;;;;;;7.07;4.65;;;;;;;;;;5056050;28;20025;-55
2024/03/27 05:38:13;;;;;;;6.00;4.30;;;;;;;;;;5056145;28;20442;-56
2024/03/27 05:40:39;;;;;;;7.05;4.70;;;;;;;;;;5055430;28;20067;-56
2024/03/27 05:43:05;;;;;;;6.20;4.53;;;;;;;;;;5055403;28;20455;-55
2024/03/27 05:45:31;;;;;;;9.75;4.55;;;;;;;;;;5055827;28;20026;-57
2024/03/27 05:47:57;;;;;;;6.82;4.60;;;;;;;;;;5055759;28;20017;-56
2024/03/27 05:50:23;;;;;;;5.82;4.45;;;;;;;;;;5055490;28;20032;-56
2024/03/27 05:52:49;;;;;;;6.63;4.80;;;;;;;;;;5055710;28;20387;-56
2024/03/27 05:55:15;;;;;;;5.65;4.57;;;;;;;;;;5055128;28;20021;-55
2024/03/27 05:57:41;;;;;;;4.35;3.95;;;;;;;;;;5054989;28;20458;-55
2024/03/27 06:00:09;;;;;;;6.68;4.18;;;;;;;;;;5055445;28;20024;-55
2024/03/27 06:02:35;;;;;;;6.93;4.35;;;;;;;;;;5054888;28;20029;-56
2024/03/27 06:05:01;;;;;;;6.13;5.13;;;;;;;;;;5054907;28;20017;-55
2024/03/27 06:07:27;;;;;;;5.18;4.22;;;;;;;;;;5055411;28;20033;-57
2024/03/27 06:09:53;;;;;;;6.05;5.00;;;;;;;;;;5054940;28;20083;-57
2024/03/27 06:12:19;;;;;;;5.28;4.25;;;;;;;;;;5055105;28;20116;-57
2024/03/27 06:14:45;;;;;;;5.20;4.28;;;;;;;;;;5054434;28;20032;-57
2024/03/27 06:17:11;;;;;;;5.07;4.00;;;;;;;;;;5054699;28;20029;-57
2024/03/27 06:19:37;;;;;;;5.20;3.67;;;;;;;;;;5055483;28;20371;-57
2024/03/27 06:22:03;;;;;;;4.75;4.10;;;;;;;;;;5054818;28;20446;-57
2024/03/27 06:24:29;;;;;;;6.55;4.63;;;;;;;;;;5054229;28;20024;-57
2024/03/27 06:26:55;;;;;;;4.22;2.80;;;;;;;;;;5054625;28;20367;-55
2024/03/27 06:29:21;;;;;;;4.32;3.08;;;;;;;;;;5054896;28;20039;-54
2024/03/27 06:31:47;;;;;;;7.32;3.30;;;;;;;;;;5054823;28;20064;-56
2024/03/27 06:34:12;;;;;;;4.78;2.70;;;;;;;;;;5054229;28;20021;-57
2024/03/27 06:36:38;;;;;;;6.43;3.15;;;;;;;;;;5054305;28;20025;-56
2024/03/27 06:39:12;;;;;;;3.40;2.50;;;;;;;;;;5054118;28;20028;-55
2024/03/27 06:41:38;;;;;;;4.68;3.25;;;;;;;;;;5054415;28;20029;-55
2024/03/27 06:44:04;;;;;;;4.43;3.08;;;;;;;;;;5054161;28;20055;-56
2024/03/27 06:46:36;;;;;;;8.98;4.40;;;;;;;;;;5054210;28;20032;-57
2024/03/27 06:49:17;;;;;;;4.15;2.97;;;;;;;;;;5054625;28;20040;-55
2024/03/27 06:51:45;;;;;;;7.30;4.07;;;;;;;;;;5054982;28;20033;-57
2024/03/27 06:54:11;;;;;;;6.68;4.18;;;;;;;;;;5053699;28;20025;-56
2024/03/27 06:56:37;;;;;;;5.43;3.78;;;;;;;;;;5054236;28;20048;-56
2024/03/27 06:59:41;;;;;;;5.82;4.55;;;;;;;;;;5053870;28;20033;-57
2024/03/27 07:02:08;;;;;;;6.07;4.32;;;;;;;;;;5054050;28;20047;-57
2024/03/27 07:04:34;;;;;;;5.20;4.22;;;;;;;;;;5054392;28;20099;-57
2024/03/27 07:07:00;;;;;;;6.25;4.13;;;;;;;;;;5053850;28;20108;-58
2024/03/27 07:09:26;;;;;;;5.57;3.58;;;;;;;;;;5053949;28;20112;-56
2024/03/27 07:11:52;;;;;;;5.10;4.57;;;;;;;;;;5054251;28;20057;-55
2024/03/27 07:14:19;;;;;;;5.93;4.75;;;;;;;;;;5053343;28;20036;-57
2024/03/27 07:16:45;;;;;;;7.15;4.53;;;;;;;;;;5054463;28;20029;-55
2024/03/27 07:19:11;;;;;;;5.53;4.13;;;;;;;;;;5054349;28;20112;-55
2024/03/27 07:21:36;;;;;;;6.28;4.78;;;;;;;;;;5053511;28;20060;-56
2024/03/27 07:24:04;;;;;;;6.25;4.88;;;;;;;;;;5053663;28;20024;-54
2024/03/27 07:26:31;;;;;;;5.72;4.13;;;;;;;;;;5054141;28;20409;-56
2024/03/27 07:28:57;;;;;;;12.15;5.03;;;;;;;;;;5054103;28;20037;-56
2024/03/27 07:31:23;;;;;;;5.40;4.30;;;;;;;;;;5053899;28;20374;-57
2024/03/27 07:33:49;;;;;;;5.68;3.97;;;;;;;;;;5053800;28;20021;-58
2024/03/27 07:36:15;;;;;;;5.97;4.38;;;;;;;;;;5053465;28;20021;-55
2024/03/27 07:38:41;;;;;;;6.70;4.78;;;;;;;;;;5053561;28;20061;-56
2024/03/27 07:41:07;;;;;;;5.60;4.25;;;;;;;;;;5053110;28;20025;-56
2024/03/27 07:43:34;;;;;;;6.22;5.00;;;;;;;;;;5055457;28;20100;-57
2024/03/27 07:46:06;;;;;;;7.22;5.00;;;;;;;;;;5057538;28;20054;-57
2024/03/27 07:48:33;;;;;;;5.13;4.50;;;;;;;;;;5058149;28;20033;-57
2024/03/27 07:50:58;;;;;;;6.43;3.92;;;;;;;;;;5057582;28;20041;-58
2024/03/27 07:53:25;;;;;;;6.15;4.07;;;;;;;;;;5057949;28;20025;-56
2024/03/27 07:55:56;;;;;;;6.53;4.57;;;;;;;;;;5057384;28;20055;-57
2024/03/27 07:58:22;;;;;;;7.28;4.53;;;;;;;;;;5058063;28;20132;-58
2024/03/27 08:00:48;;;;;;;5.07;4.15;;;;;;;;;;5057328;28;20520;-58
2024/03/27 08:03:14;;;;;;;6.03;4.95;;;;;;;;;;5057066;28;20479;-57
2024/03/27 08:05:40;;;;;;;6.90;4.50;;;;;;;;;;5057721;28;20032;-54
2024/03/27 08:08:06;;;;;;;7.40;4.55;;;;;;;;;;5057132;28;20053;-57
2024/03/27 08:10:32;;;;;;;5.18;3.88;;;;;;;;;;5056820;28;20428;-56
2024/03/27 08:12:58;;;;;;;5.85;4.72;;;;;;;;;;5057269;28;20074;-56
2024/03/27 08:15:24;;;;;;;6.50;4.05;;;;;;;;;;5056676;28;20108;-57
2024/03/27 08:17:50;;;;;;;7.47;4.25;;;;;;;;;;5056508;28;20033;-56
2024/03/27 08:20:17;;;;;;;4.15;3.42;;;;;;;;;;5057388;28;20029;-58
2024/03/27 08:22:43;;;;;;;8.27;4.03;;;;;;;;;;5056881;28;20025;-55
2024/03/27 08:25:09;;;;;;;4.97;3.70;;;;;;;;;;5057163;28;20048;-58
2024/03/27 08:27:35;;;;;;;6.93;4.20;;;;;;;;;;5057228;28;20025;-56
2024/03/27 08:30:01;;;;;;;4.10;3.70;;;;;;;;;;5056532;28;20538;-56
2024/03/27 08:32:27;;;;;;;4.78;3.58;;;;;;;;;;5056725;28;20053;-58
2024/03/27 08:34:53;;;;;;;4.82;4.13;;;;;;;;;;5056411;28;20028;-58
2024/03/27 08:37:19;;;;;;;7.05;4.55;;;;;;;;;;5056499;28;20036;-58
2024/03/27 08:39:45;;;;;;;5.32;3.83;;;;;;;;;;5057205;28;20463;-57
2024/03/27 08:42:11;;;;;;;6.53;4.38;;;;;;;;;;5056632;28;20447;-58
2024/03/27 08:44:37;;;;;;;6.07;3.95;;;;;;;;;;5056479;28;20029;-58
2024/03/27 08:47:04;;;;;;;3.97;3.35;;;;;;;;;;5057320;28;20371;-58
2024/03/27 08:49:30;;;;;;;4.97;3.83;;;;;;;;;;5056955;28;20140;-58
2024/03/27 08:51:56;;;;;;;7.00;3.80;;;;;;;;;;5057017;28;20374;-58
2024/03/27 08:54:22;;;;;;;5.38;4.75;;;;;;;;;;5055868;28;20021;-56
2024/03/27 08:56:48;;;;;;;5.65;4.18;;;;;;;;;;5055743;28;20574;-58
2024/03/27 08:59:14;;;;;;;5.97;4.28;;;;;;;;;;5056237;28;20024;-57
2024/03/27 09:01:40;;;;;;;6.15;4.40;;;;;;;;;;5056723;28;20025;-58
2024/03/27 09:04:06;;;;;;;7.57;4.40;;;;;;;;;;5056150;28;20036;-58
2024/03/27 09:06:32;;;;;;;5.70;3.63;;;;;;;;;;5055950;28;20039;-57
2024/03/27 09:08:58;;;;;;;4.43;3.42;;;;;;;;;;5056577;28;20375;-57
2024/03/27 09:11:24;;;;;;;6.05;4.72;;;;;;;;;;5055961;28;20032;-56
2024/03/27 09:13:50;;;;;;;4.80;4.30;;;;;;;;;;5055986;28;20103;-57
2024/03/27 09:16:16;;;;;;;4.78;3.88;;;;;;;;;;5056209;28;20075;-58
2024/03/27 09:18:42;;;;;;;5.07;3.70;;;;;;;;;;5056136;28;20478;-57
2024/03/27 09:21:08;;;;;;;5.28;3.88;;;;;;;;;;5055509;28;20021;-58
2024/03/27 09:23:34;;;;;;;5.00;3.97;;;;;;;;;;5055768;28;20055;-58
2024/03/27 09:26:04;;;;;;;6.13;4.18;;;;;;;;;;5056254;28;20025;-58
2024/03/27 09:28:30;;;;;;;4.97;3.83;;;;;;;;;;5056193;28;20116;-58
2024/03/27 09:30:57;;;;;;;7.13;4.22;;;;;;;;;;5055644;28;20115;-58
2024/03/27 09:33:23;;;;;;;6.45;4.43;;;;;;;;;;5055536;28;20025;-58
2024/03/27 09:35:50;;;;;;;6.57;4.15;;;;;;;;;;5055464;28;20021;-58
2024/03/27 09:38:16;;;;;;;6.57;5.05;;;;;;;;;;5055409;28;20040;-58
2024/03/27 09:40:45;;;;;;;5.40;4.40;;;;;;;;;;5055427;28;20196;-59
2024/03/27 09:43:11;;;;;;;7.15;4.38;;;;;;;;;;5055401;28;20546;-57
2024/03/27 09:45:37;;;;;;;4.82;3.85;;;;;;;;;;5055265;28;20110;-57
2024/03/27 09:48:04;;;;;;;5.55;3.83;;;;;;;;;;5055357;28;20029;-56
2024/03/27 09:50:31;;;;;;;8.32;4.50;;;;;;;;;;5055346;28;20174;-57
2024/03/27 09:52:58;;;;;;;8.43;4.38;;;;;;;;;;5055170;28;20090;-55
2024/03/27 09:55:24;;;;;;;6.28;4.38;;;;;;;;;;5054935;28;20116;-57
2024/03/27 09:57:51;;;;;;;6.93;4.88;;;;;;;;;;5054978;28;20041;-57
2024/03/27 10:00:17;;;;;;;5.18;4.00;;;;;;;;;;5055542;28;20418;-57
2024/03/27 10:02:43;;;;;;;5.85;4.35;;;;;;;;;;5055002;28;20078;-57
2024/03/27 10:05:10;;;;;;;6.95;4.85;;;;;;;;;;5054692;28;20071;-56
2024/03/27 10:07:37;;;;;;;7.28;4.22;;;;;;;;;;5055191;28;20103;-57
2024/03/27 10:10:04;;;;;;;3.85;3.42;;;;;;;;;;5055289;28;20037;-56
2024/03/27 10:12:30;;;;;;;7.47;4.35;;;;;;;;;;5054885;28;20032;-57
2024/03/27 10:14:56;;;;;;;6.15;3.97;;;;;;;;;;5054863;28;20025;-55
2024/03/27 10:17:22;;;;;;;4.63;3.60;;;;;;;;;;5055560;28;20359;-57
2024/03/27 10:19:48;;;;;;;5.43;3.85;;;;;;;;;;5055083;28;20033;-57
2024/03/27 10:22:14;;;;;;;4.18;3.58;;;;;;;;;;5054686;28;20518;-56
2024/03/27 10:24:40;;;;;;;7.20;3.95;;;;;;;;;;5054187;28;20029;-57
2024/03/27 10:27:06;;;;;;;4.63;3.97;;;;;;;;;;5054171;28;20025;-58
2024/03/27 10:29:32;;;;;;;5.32;4.13;;;;;;;;;;5054777;28;20036;-58
2024/03/27 10:32:01;;;;;;;4.15;3.75;;;;;;;;;;5054373;28;20025;-57
2024/03/27 10:34:26;;;;;;;5.50;4.05;;;;;;;;;;5054255;28;20113;-58
2024/03/27 10:36:53;;;;;;;5.00;3.65;;;;;;;;;;5054386;28;20090;-58
2024/03/27 10:39:20;;;;;;;3.92;3.47;;;;;;;;;;5054823;28;20036;-58
2024/03/27 10:41:47;;;;;;;5.10;3.40;;;;;;;;;;5054734;28;20025;-58
2024/03/27 10:44:14;;;;;;;6.78;3.95;;;;;;;;;;5054328;28;20352;-58
2024/03/27 10:46:41;;;;;;;6.82;3.95;;;;;;;;;;5054169;28;20021;-58
2024/03/27 10:49:07;;;;;;;4.55;3.95;;;;;;;;;;5054446;28;20441;-58
2024/03/27 10:51:33;;;;;;;6.18;4.07;;;;;;;;;;5054637;28;20029;-58
2024/03/27 10:53:59;;;;;;;3.60;3.15;;;;;;;;;;5054150;28;20036;-56
2024/03/27 10:56:26;;;;;;;4.68;3.83;;;;;;;;;;5053881;28;20124;-59
2024/03/27 10:58:53;;;;;;;5.80;4.03;;;;;;;;;;5054851;28;20024;-59
2024/03/27 11:01:20;;;;;;;5.15;4.30;;;;;;;;;;5054382;28;20025;-56
2024/03/27 11:03:49;;;;;;;5.60;4.40;;;;;;;;;;5054441;28;20024;-57
2024/03/27 11:06:17;;;;;;;5.22;4.72;;;;;;;;;;5054233;28;20104;-58
2024/03/27 11:08:43;;;;;;;4.55;3.85;;;;;;;;;;5054428;28;20465;-58
2024/03/27 11:11:10;;;;;;;8.23;4.63;;;;;;;;;;5054374;28;20029;-58
2024/03/27 11:13:36;;;;;;;7.22;5.07;;;;;;;;;;5054117;28;20021;-58
2024/03/27 11:16:02;;;;;;;7.95;4.07;;;;;;;;;;5053807;28;20025;-58
2024/03/27 11:18:32;;;;;;;4.72;4.22;;;;;;;;;;5053686;28;20108;-57
2024/03/27 11:20:58;;;;;;;6.80;4.57;;;;;;;;;;5053567;28;20383;-57
2024/03/27 11:23:34;;;;;;;5.00;3.90;;;;;;;;;;5053666;28;20065;-58
2024/03/27 11:26:03;;;;;;;6.35;4.07;;;;;;;;;;5053786;28;20025;-58
2024/03/27 11:28:29;;;;;;;5.05;4.07;;;;;;;;;;5053693;28;20379;-58
2024/03/27 11:30:55;;;;;;;5.30;4.35;;;;;;;;;;5053506;28;20116;-58
2024/03/27 11:33:24;;;;;;;8.57;5.32;;;;;;;;;;5053194;28;20049;-58
2024/03/27 11:35:50;;;;;;;7.40;4.55;;;;;;;;;;5053506;28;20029;-58
2024/03/27 11:38:20;;;;;;;5.03;4.30;;;;;;;;;;5053516;28;20036;-58
2024/03/27 11:40:46;;;;;;;3.97;3.38;;;;;;;;;;5054058;28;20029;-58
2024/03/27 11:43:12;;;;;;;4.90;3.65;;;;;;;;;;5053534;28;20363;-59
2024/03/27 11:45:38;;;;;;;5.53;3.60;;;;;;;;;;5053692;28;20025;-58
2024/03/27 11:48:04;;;;;;;4.93;4.13;;;;;;;;;;5053712;28;20029;-59
2024/03/27 11:50:30;;;;;;;5.55;3.50;;;;;;;;;;5053213;28;20036;-59
2024/03/27 11:52:56;;;;;;;6.60;4.05;;;;;;;;;;5053673;28;20104;-59
2024/03/27 11:55:22;;;;;;;4.68;3.38;;;;;;;;;;5053356;28;20043;-59
2024/03/27 11:57:48;;;;;;;6.50;4.32;;;;;;;;;;5053421;28;20048;-59
2024/03/27 12:00:15;;;;;;;4.47;3.40;;;;;;;;;;5053525;28;20025;-59
2024/03/27 12:02:41;;;;;;;4.57;3.03;;;;;;;;;;5053515;28;20061;-59
2024/03/27 12:05:07;;;;;;;4.40;3.65;;;;;;;;;;5052920;28;20118;-59
2024/03/27 12:07:34;;;;;;;5.88;3.63;;;;;;;;;;5053338;28;20032;-59
2024/03/27 12:10:00;;;;;;;7.22;4.00;;;;;;;;;;5054054;28;20060;-59
2024/03/27 12:12:30;;;;;;;4.82;3.50;;;;;;;;;;5052979;28;20483;-59
2024/03/27 12:14:56;;;;;;;4.03;3.63;;;;;;;;;;5053226;28;20025;-59
2024/03/27 12:17:24;;;;;;;7.38;3.58;;;;;;;;;;5053462;28;20112;-59
2024/03/27 12:19:54;;;;;;;6.28;3.55;;;;;;;;;;5051970;28;20064;-58
2024/03/27 12:22:20;;;;;;;3.07;2.20;;;;;;;;;;5053395;28;20112;-58
2024/03/27 12:24:47;;;;;;;2.78;2.17;;;;;;;;;;5053427;28;20032;-57
2024/03/27 12:27:13;;;;;;;3.33;1.92;;;;;;;;;;5053568;28;20351;-57
2024/03/27 12:29:39;;;;;;;3.28;1.70;;;;;;;;;;5055092;28;20402;-58
2024/03/27 12:32:05;;;;;;;2.92;1.55;;;;;;;;;;5056872;28;20070;-57
2024/03/27 12:34:32;;;;;;;3.30;1.30;;;;;;;;;;5056772;28;20033;-58
2024/03/27 12:37:00;;;;;;;2.63;0.82;;;;;;;;;;5057478;28;20017;-58
2024/03/27 12:39:26;;;;;;;2.08;0.80;;;;;;;;;;5056725;28;20032;-58
2024/03/27 12:41:52;;;;;;;1.65;0.90;;;;;;;;;;5056424;28;20021;-57
2024/03/27 12:44:18;;;;;;;1.58;0.90;;;;;;;;;;5056939;28;20036;-58
2024/03/27 12:46:44;;;;;;;1.17;0.55;;;;;;;;;;5056093;28;20029;-57
2024/03/27 12:49:10;;;;;;;1.00;0.55;;;;;;;;;;5056947;28;20033;-58
2024/03/27 12:51:36;;;;;;;2.10;0.88;;;;;;;;;;5056124;28;20376;-58
2024/03/27 12:54:02;;;;;;;1.80;0.90;;;;;;;;;;5056634;28;20061;-58
2024/03/27 12:56:30;;;;;;;1.67;1.05;;;;;;;;;;5056432;28;20081;-58
2024/03/27 12:58:56;;;;;;;2.45;0.75;;;;;;;;;;5056521;28;20514;-58
2024/03/27 13:01:22;;;;;;;0.63;0.30;;;;;;;;;;5056165;28;20056;-58
2024/03/27 13:03:48;;;;;;;1.33;0.60;;;;;;;;;;5056177;28;20032;-58
2024/03/27 13:06:14;;;;;;;1.42;0.55;;;;;;;;;;5056200;28;20025;-59
2024/03/27 13:08:40;;;;;;;1.05;0.55;;;;;;;;;;5056366;28;20024;-58
2024/03/27 13:11:06;;;;;;;1.90;0.68;;;;;;;;;;5056312;28;20036;-59
2024/03/27 13:13:32;;;;;;;1.23;0.70;;;;;;;;;;5056306;28;20515;-58
2024/03/27 13:15:58;;;;;;;1.08;0.40;;;;;;;;;;5056314;28;20029;-58
2024/03/27 13:18:26;;;;;;;0.90;0.43;;;;;;;;;;5056431;28;20379;-58
2024/03/27 13:20:52;;;;;;;1.80;0.32;;;;;;;;;;5056356;28;20033;-58
2024/03/27 13:23:18;;;;;;;0.88;0.50;;;;;;;;;;5055853;28;20098;-57
2024/03/27 13:25:44;;;;;;;0.77;0.25;;;;;;;;;;5056014;28;20025;-58
2024/03/27 13:28:10;;;;;;;1.13;0.52;;;;;;;;;;5056294;28;20048;-55
2024/03/27 13:30:36;;;;;;;1.70;0.70;;;;;;;;;;5056117;28;20064;-58
2024/03/27 13:33:02;;;;;;;1.00;0.47;;;;;;;;;;5055877;28;20435;-58
2024/03/27 13:35:28;;;;;;;1.30;0.47;;;;;;;;;;5055371;28;20102;-57
2024/03/27 13:37:54;;;;;;;1.45;0.70;;;;;;;;;;5055255;28;20033;-58
2024/03/27 13:40:20;;;;;;;1.58;0.50;;;;;;;;;;5055756;28;20037;-58
2024/03/27 13:42:46;;;;;;;1.20;0.60;;;;;;;;;;5054912;28;20021;-60
2024/03/27 13:45:12;;;;;;;1.08;0.40;;;;;;;;;;5055318;28;20062;-57
2024/03/27 13:47:38;;;;;;;1.55;0.63;;;;;;;;;;5055055;28;20029;-59
2024/03/27 13:50:05;;;;;;;0.90;0.47;;;;;;;;;;5055231;28;20037;-58
2024/03/27 13:52:31;;;;;;;0.90;0.50;;;;;;;;;;5056049;28;20354;-58
2024/03/27 13:54:57;;;;;;;0.77;0.30;;;;;;;;;;5055769;28;20111;-58
2024/03/27 13:57:23;;;;;;;0.90;0.30;;;;;;;;;;5055345;28;20060;-58
2024/03/27 13:59:49;;;;;;;1.23;0.40;;;;;;;;;;5055497;28;20083;-58
2024/03/27 14:02:15;;;;;;;0.70;0.30;;;;;;;;;;5055097;28;20029;-57
2024/03/27 14:04:43;;;;;;;0.70;0.30;;;;;;;;;;5054932;28;20029;-56
2024/03/27 14:07:09;;;;;;;0.73;0.30;;;;;;;;;;5054837;28;20356;-58
2024/03/27 14:09:35;;;;;;;1.08;0.43;;;;;;;;;;5054751;28;20037;-57
2024/03/27 14:12:02;;;;;;;0.40;0.20;;;;;;;;;;5054355;28;20029;-57
2024/03/27 14:14:28;;;;;;;1.00;0.35;;;;;;;;;;5055019;28;20033;-56
2024/03/27 14:16:54;;;;;;;0.60;0.22;;;;;;;;;;5054910;28;20024;-56
2024/03/27 14:19:20;;;;;;;0.77;0.38;;;;;;;;;;5054743;28;20036;-55
2024/03/27 14:21:46;;;;;;;1.00;0.40;;;;;;;;;;5054415;28;20052;-57
2024/03/27 14:24:12;;;;;;;0.95;0.50;;;;;;;;;;5054953;28;20047;-56
2024/03/27 14:26:38;;;;;;;1.08;0.40;;;;;;;;;;5055155;28;20029;-54
2024/03/27 14:29:04;;;;;;;0.68;0.28;;;;;;;;;;5055335;28;20057;-58
2024/03/27 14:31:30;;;;;;;0.95;0.40;;;;;;;;;;5054194;28;20021;-57
2024/03/27 14:33:56;;;;;;;0.60;0.30;;;;;;;;;;5054986;28;20359;-58
2024/03/27 14:36:22;;;;;;;1.02;0.40;;;;;;;;;;5054410;28;20417;-57
2024/03/27 14:38:49;;;;;;;0.80;0.40;;;;;;;;;;5054657;28;20029;-58